Time;durP1;ratioP1;P1;durP2;ratioP2;P2;SDS_P1;SDS_P2;PMS_P1;PMS_P2;Temp;Humidity;BMP_temperature;BMP_pressure;BME280_temperature;BME280_humidity;BME280_pressure;Samples;Min_cycle;Max_cycle;Signal;HPM_P1;HPM_P2
2021/01/03 00:01:12;;;;;;;17.23;13.20;;;;;;;-0.82;100.00;97262.31;4995624;28;21271;-76
2021/01/03 00:03:39;;;;;;;17.67;13.53;;;;;;;-0.97;100.00;97266.84;4997307;28;20235;-74
2021/01/03 00:06:09;;;;;;;16.37;14.43;;;;;;;-0.84;100.00;97262.41;5000780;28;21036;-75
2021/01/03 00:08:36;;;;;;;16.93;12.50;;;;;;;-0.76;100.00;97260.13;4996902;28;20201;-75
2021/01/03 00:11:04;;;;;;;18.37;13.40;;;;;;;-0.77;100.00;97257.63;4996416;28;20221;-75
2021/01/03 00:13:31;;;;;;;16.97;13.87;;;;;;;-0.83;100.00;97248.47;5001470;28;20493;-75
2021/01/03 00:15:58;;;;;;;17.10;12.90;;;;;;;-0.96;100.00;97253.72;4998206;28;20455;-77
2021/01/03 00:18:26;;;;;;;20.40;14.50;;;;;;;-1.00;100.00;97259.28;4999745;28;20201;-75
2021/01/03 00:20:53;;;;;;;19.60;15.17;;;;;;;-0.88;100.00;97255.78;4996870;28;20476;-75
2021/01/03 00:23:20;;;;;;;18.80;13.70;;;;;;;-1.06;100.00;97250.13;5000210;28;20447;-74
2021/01/03 00:25:48;;;;;;;19.07;13.03;;;;;;;-1.02;100.00;97244.59;4998027;28;20440;-76
2021/01/03 00:28:16;;;;;;;16.80;12.90;;;;;;;-0.93;100.00;97247.47;4999439;28;20208;-76
2021/01/03 00:30:43;;;;;;;15.77;13.13;;;;;;;-1.00;100.00;97244.47;5000916;28;20216;-76
2021/01/03 00:33:10;;;;;;;17.37;12.67;;;;;;;-0.89;100.00;97243.72;5000781;28;20259;-75
2021/01/03 00:35:38;;;;;;;16.67;12.93;;;;;;;-1.01;100.00;97248.03;5003507;28;20212;-75
2021/01/03 00:38:07;;;;;;;18.33;14.70;;;;;;;-1.02;100.00;97247.19;4999436;28;20603;-76
2021/01/03 00:40:35;;;;;;;16.67;14.10;;;;;;;-1.00;100.00;97241.88;5000689;28;20785;-76
2021/01/03 00:43:03;;;;;;;16.00;13.17;;;;;;;-0.96;100.00;97234.69;4999985;28;20263;-75
2021/01/03 00:45:31;;;;;;;16.87;13.30;;;;;;;-1.01;100.00;97240.22;5000325;28;20564;-75
2021/01/03 00:47:58;;;;;;;21.17;14.50;;;;;;;-1.03;100.00;97245.53;5000989;28;20819;-75
2021/01/03 00:50:27;;;;;;;17.33;14.40;;;;;;;-1.09;100.00;97239.94;5000292;28;20822;-75
2021/01/03 00:52:54;;;;;;;14.43;12.93;;;;;;;-1.19;100.00;97247.56;4998855;28;20447;-75
2021/01/03 00:55:21;;;;;;;17.73;14.40;;;;;;;-1.10;100.00;97246.09;4996152;28;21057;-76
2021/01/03 00:57:49;;;;;;;17.17;14.13;;;;;;;-1.10;100.00;97248.69;4999442;28;20820;-77
2021/01/03 01:00:20;;;;;;;18.50;13.57;;;;;;;-1.13;100.00;97246.31;5004655;28;20223;-75
2021/01/03 01:02:49;;;;;;;18.40;14.20;;;;;;;-1.08;100.00;97242.44;5000802;28;20229;-76
2021/01/03 01:05:17;;;;;;;18.23;14.70;;;;;;;-0.95;100.00;97247.56;4999049;28;20209;-74
2021/01/03 01:07:44;;;;;;;16.77;13.57;;;;;;;-1.02;100.00;97246.34;4995715;28;20205;-76
2021/01/03 01:10:13;;;;;;;14.63;13.03;;;;;;;-0.99;100.00;97253.13;5010686;28;20202;-77
2021/01/03 01:12:41;;;;;;;20.63;15.10;;;;;;;-1.18;100.00;97244.00;5011022;28;20499;-76
2021/01/03 01:15:13;;;;;;;18.47;13.37;;;;;;;-1.21;100.00;97245.09;5006770;28;20542;-75
2021/01/03 01:17:40;;;;;;;16.70;14.37;;;;;;;-1.23;100.00;97240.91;5006318;28;20201;-76
2021/01/03 01:20:10;;;;;;;17.70;14.07;;;;;;;-1.20;100.00;97249.34;5003713;28;20660;-76
2021/01/03 01:22:37;;;;;;;18.40;14.20;;;;;;;-1.32;100.00;97240.63;5013336;28;20235;-76
2021/01/03 01:25:05;;;;;;;16.97;13.43;;;;;;;-1.23;100.00;97243.50;5008722;28;20297;-75
2021/01/03 01:27:32;;;;;;;17.43;13.03;;;;;;;-1.25;100.00;97248.00;5011376;28;20237;-75
2021/01/03 01:29:59;;;;;;;16.30;12.93;;;;;;;-1.20;100.00;97243.28;5007626;28;21064;-76
2021/01/03 01:32:26;;;;;;;20.43;14.90;;;;;;;-1.22;100.00;97248.63;5009096;28;20252;-75
2021/01/03 01:34:53;;;;;;;17.93;13.67;;;;;;;-1.23;100.00;97246.13;5007557;28;20324;-74
2021/01/03 01:37:21;;;;;;;16.80;14.53;;;;;;;-1.38;100.00;97248.03;5006517;28;20212;-75
2021/01/03 01:39:49;;;;;;;17.43;14.17;;;;;;;-1.37;100.00;97240.13;5005077;28;20212;-74
2021/01/03 01:42:16;;;;;;;16.93;13.70;;;;;;;-1.32;100.00;97237.22;5002725;28;20236;-75
2021/01/03 01:44:43;;;;;;;23.13;14.70;;;;;;;-1.27;100.00;97245.53;5006666;28;20440;-74
2021/01/03 01:47:16;;;;;;;19.80;15.03;;;;;;;-1.26;100.00;97243.72;5006064;28;21019;-73
2021/01/03 01:49:44;;;;;;;15.80;13.20;;;;;;;-1.29;100.00;97236.16;5011284;28;20482;-74
2021/01/03 01:52:13;;;;;;;20.57;14.77;;;;;;;-1.32;100.00;97235.44;5002144;28;20467;-73
2021/01/03 01:54:43;;;;;;;17.37;14.63;;;;;;;-1.25;100.00;97233.25;5008956;28;20229;-75
2021/01/03 01:57:15;;;;;;;21.33;16.03;;;;;;;-1.32;100.00;97232.84;5007251;28;20211;-75
2021/01/03 01:59:48;;;;;;;18.63;15.13;;;;;;;-1.36;100.00;97231.38;5008306;28;20977;-73
2021/01/03 02:02:19;;;;;;;19.30;14.87;;;;;;;-1.50;100.00;97229.75;5015624;28;20618;-73
2021/01/03 02:04:54;;;;;;;21.67;15.73;;;;;;;-1.37;100.00;97226.28;5010238;28;20328;-74
2021/01/03 02:07:27;;;;;;;23.80;15.60;;;;;;;-1.39;100.00;97220.38;5014615;28;20943;-74
2021/01/03 02:10:09;;;;;;;19.30;14.90;;;;;;;-1.38;100.00;97225.47;5010760;28;20444;-73
2021/01/03 02:12:38;;;;;;;22.53;14.90;;;;;;;-1.32;100.00;97219.84;5006988;28;20468;-73
2021/01/03 02:15:09;;;;;;;20.00;15.10;;;;;;;-1.52;100.00;97216.03;5003688;28;20229;-74
2021/01/03 02:17:36;;;;;;;16.90;13.60;;;;;;;-1.48;100.00;97216.66;5013562;28;20450;-73
2021/01/03 02:20:04;;;;;;;21.70;16.37;;;;;;;-1.50;100.00;97221.97;5003832;28;20209;-74
2021/01/03 02:22:36;;;;;;;21.23;16.60;;;;;;;-1.39;100.00;97222.97;5007698;28;20236;-73
2021/01/03 02:25:06;;;;;;;20.13;15.90;;;;;;;-1.35;100.00;97217.44;5015566;28;20443;-74
2021/01/03 02:27:37;;;;;;;18.97;15.47;;;;;;;-1.36;100.00;97217.53;5006600;28;20543;-73
2021/01/03 02:30:07;;;;;;;21.03;16.03;;;;;;;-1.46;100.00;97214.78;5004308;28;20468;-73
2021/01/03 02:32:35;;;;;;;21.03;16.50;;;;;;;-1.30;100.00;97214.53;5006461;28;20934;-74
2021/01/03 02:35:06;;;;;;;19.43;15.93;;;;;;;-1.38;100.00;97214.22;5000473;28;20613;-73
2021/01/03 02:37:39;;;;;;;19.40;16.40;;;;;;;-1.25;100.00;97209.84;5006636;28;20448;-74
2021/01/03 02:40:10;;;;;;;20.87;16.70;;;;;;;-1.25;100.00;97217.63;5002501;28;20228;-75
2021/01/03 02:42:40;;;;;;;18.73;14.97;;;;;;;-1.33;100.00;97210.38;5007293;28;20840;-73
2021/01/03 02:45:09;;;;;;;20.27;15.37;;;;;;;-1.31;100.00;97215.47;5000518;28;20447;-75
2021/01/03 02:47:37;;;;;;;19.63;14.80;;;;;;;-1.22;100.00;97212.22;5006855;28;20447;-74
2021/01/03 02:50:05;;;;;;;20.93;16.63;;;;;;;-1.36;100.00;97209.75;5003038;28;20692;-73
2021/01/03 02:52:34;;;;;;;24.63;16.47;;;;;;;-1.43;100.00;97205.94;5007394;28;20479;-74
2021/01/03 02:55:02;;;;;;;22.07;15.93;;;;;;;-1.44;100.00;97207.72;5005826;28;20489;-73
2021/01/03 02:57:30;;;;;;;21.93;16.80;;;;;;;-1.47;100.00;97206.16;5002786;28;20812;-73
2021/01/03 02:59:57;;;;;;;19.47;16.03;;;;;;;-1.37;100.00;97213.28;5005596;28;20539;-73
2021/01/03 03:02:24;;;;;;;22.37;15.00;;;;;;;-1.27;100.00;97214.31;5007577;28;20593;-75
2021/01/03 03:04:51;;;;;;;25.20;16.70;;;;;;;-1.38;100.00;97211.63;5003580;28;20705;-72
2021/01/03 03:07:18;;;;;;;20.10;16.10;;;;;;;-1.35;100.00;97217.44;5005231;28;20463;-74
2021/01/03 03:09:45;;;;;;;20.63;16.10;;;;;;;-1.35;100.00;97211.41;5013877;28;20208;-73
2021/01/03 03:12:13;;;;;;;22.23;17.43;;;;;;;-1.36;100.00;97213.19;5008733;28;20968;-75
2021/01/03 03:14:41;;;;;;;22.17;16.73;;;;;;;-1.42;100.00;97212.78;5004337;28;20985;-76
2021/01/03 03:17:09;;;;;;;22.67;16.80;;;;;;;-1.41;100.00;97204.06;5007853;28;20803;-74
2021/01/03 03:19:36;;;;;;;22.57;16.97;;;;;;;-1.45;100.00;97200.84;5007435;28;20217;-75
2021/01/03 03:22:04;;;;;;;24.93;17.57;;;;;;;-1.44;100.00;97204.28;4997213;28;20225;-73
2021/01/03 03:24:31;;;;;;;21.57;15.93;;;;;;;-1.39;100.00;97210.81;5007316;28;20212;-76
2021/01/03 03:27:00;;;;;;;22.00;15.50;;;;;;;-1.21;100.00;97213.03;5003636;28;20470;-73
2021/01/03 03:29:27;;;;;;;21.10;17.03;;;;;;;-1.42;100.00;97208.44;5006667;28;20248;-74
2021/01/03 03:31:56;;;;;;;25.87;17.57;;;;;;;-1.42;100.00;97205.00;5003235;28;20463;-75
2021/01/03 03:34:24;;;;;;;22.87;18.43;;;;;;;-1.41;100.00;97206.66;5002065;28;20225;-74
2021/01/03 03:36:52;;;;;;;21.10;16.77;;;;;;;-1.42;100.00;97207.59;5001565;28;20455;-73
2021/01/03 03:39:19;;;;;;;24.17;17.93;;;;;;;-1.42;100.00;97195.44;5001495;28;20439;-73
2021/01/03 03:41:46;;;;;;;25.03;18.67;;;;;;;-1.43;100.00;97198.13;5002516;28;20232;-75
2021/01/03 03:44:13;;;;;;;22.30;15.80;;;;;;;-1.54;100.00;97202.31;5005444;28;20700;-74
2021/01/03 03:46:40;;;;;;;24.83;16.63;;;;;;;-1.23;100.00;97199.31;5006745;28;20209;-73
2021/01/03 03:49:08;;;;;;;23.03;17.00;;;;;;;-1.42;100.00;97202.38;5006942;28;20639;-77
2021/01/03 03:51:35;;;;;;;22.80;16.27;;;;;;;-1.37;100.00;97195.09;4999275;28;20467;-72
2021/01/03 03:54:03;;;;;;;27.87;19.00;;;;;;;-1.41;100.00;97191.91;5001804;28;20239;-75
2021/01/03 03:56:30;;;;;;;20.30;15.73;;;;;;;-1.37;100.00;97195.09;5003500;28;20212;-74
2021/01/03 03:58:57;;;;;;;27.00;17.50;;;;;;;-1.48;100.00;97194.09;5005326;28;20416;-74
2021/01/03 04:01:24;;;;;;;26.03;17.77;;;;;;;-1.44;100.00;97186.91;5002427;28;20229;-75
2021/01/03 04:03:51;;;;;;;23.13;17.40;;;;;;;-1.37;100.00;97179.50;5004389;28;20444;-73
2021/01/03 04:06:26;;;;;;;23.57;18.57;;;;;;;-1.38;100.00;97181.28;5003050;28;20929;-74
2021/01/03 04:08:54;;;;;;;25.00;17.67;;;;;;;-1.43;100.00;97180.78;5009869;28;20439;-74
2021/01/03 04:11:21;;;;;;;22.93;17.03;;;;;;;-1.47;100.00;97180.16;5008810;28;20231;-76
2021/01/03 04:13:48;;;;;;;25.20;19.10;;;;;;;-1.41;100.00;97176.31;5004573;28;20219;-74
2021/01/03 04:16:15;;;;;;;23.33;18.40;;;;;;;-1.41;100.00;97178.91;5005970;28;20242;-73
2021/01/03 04:18:42;;;;;;;26.70;17.93;;;;;;;-1.27;100.00;97166.69;5001304;28;20216;-74
2021/01/03 04:21:11;;;;;;;25.50;17.87;;;;;;;-1.29;100.00;97172.00;4997903;28;20228;-75
2021/01/03 04:23:39;;;;;;;25.23;18.47;;;;;;;-1.37;100.00;97167.34;4999236;28;20208;-75
2021/01/03 04:26:06;;;;;;;21.53;17.33;;;;;;;-1.47;100.00;97161.97;5006389;28;20861;-74
2021/01/03 04:28:33;;;;;;;22.77;16.57;;;;;;;-1.32;100.00;97167.03;4994579;28;20875;-72
2021/01/03 04:31:01;;;;;;;24.17;16.70;;;;;;;-1.36;100.00;97169.00;5002874;28;20238;-74
2021/01/03 04:33:28;;;;;;;22.73;17.13;;;;;;;-1.38;100.00;97160.50;5007677;28;20316;-74
2021/01/03 04:35:55;;;;;;;26.53;17.47;;;;;;;-1.39;100.00;97160.59;5005635;28;20225;-74
2021/01/03 04:38:22;;;;;;;21.90;15.73;;;;;;;-1.29;100.00;97155.56;5010011;28;20471;-73
2021/01/03 04:40:54;;;;;;;25.07;18.03;;;;;;;-1.36;100.00;97152.56;5001204;28;20602;-72
2021/01/03 04:43:21;;;;;;;22.13;16.93;;;;;;;-1.37;100.00;97159.53;5004676;28;20296;-74
2021/01/03 04:45:49;;;;;;;21.50;16.83;;;;;;;-1.25;100.00;97157.84;5009634;28;20201;-72
2021/01/03 04:48:20;;;;;;;24.27;17.87;;;;;;;-1.36;100.00;97157.75;5007420;28;20546;-74
2021/01/03 04:50:59;;;;;;;23.73;17.63;;;;;;;-1.31;100.00;97169.50;5007301;28;20692;-76
2021/01/03 04:53:37;;;;;;;25.03;16.83;;;;;;;-1.33;100.00;97168.78;5011899;28;20215;-76
2021/01/03 04:56:14;;;;;;;19.27;16.03;;;;;;;-1.24;100.00;97167.31;5002523;28;20863;-75
2021/01/03 04:58:48;;;;;;;19.80;15.37;;;;;;;-1.27;100.00;97169.28;5004918;28;21045;-76
2021/01/03 05:01:39;;;;;;;21.53;15.67;;;;;;;-1.02;100.00;97176.13;5003059;28;20479;-72
2021/01/03 05:04:36;;;;;;;24.63;17.50;;;;;;;-1.33;100.00;97176.59;5002310;28;20296;-74
2021/01/03 05:07:08;;;;;;;24.37;17.07;;;;;;;-1.27;100.00;97177.91;5001421;28;20296;-73
2021/01/03 05:09:35;;;;;;;22.13;16.50;;;;;;;-1.24;100.00;97188.09;5010096;28;20447;-75
2021/01/03 05:12:11;;;;;;;21.30;17.17;;;;;;;-1.11;100.00;97185.47;5003305;28;20235;-72
2021/01/03 05:14:43;;;;;;;25.80;17.20;;;;;;;-1.17;100.00;97181.50;5005371;28;20236;-72
2021/01/03 05:17:10;;;;;;;23.43;17.03;;;;;;;-1.02;100.00;97187.38;5009315;28;20440;-74
2021/01/03 05:19:37;;;;;;;20.73;16.63;;;;;;;-1.14;100.00;97188.25;5000199;28;20214;-72
2021/01/03 05:22:06;;;;;;;21.43;16.67;;;;;;;-1.25;100.00;97186.44;5004146;28;20225;-74
2021/01/03 05:24:43;;;;;;;23.47;17.37;;;;;;;-1.08;100.00;97182.63;5001171;28;20251;-71
2021/01/03 05:27:16;;;;;;;21.43;16.87;;;;;;;-1.23;100.00;97179.34;4997771;28;20208;-72
2021/01/03 05:29:44;;;;;;;20.07;15.33;;;;;;;-1.20;100.00;97183.50;5004940;28;20208;-71
2021/01/03 05:32:12;;;;;;;21.53;14.90;;;;;;;-0.96;100.00;97183.50;5006267;28;21097;-71
2021/01/03 05:34:40;;;;;;;19.17;16.93;;;;;;;-1.06;100.00;97178.16;5003466;28;20688;-72
2021/01/03 05:37:11;;;;;;;24.40;16.67;;;;;;;-1.21;100.00;97176.63;5010778;28;20356;-72
2021/01/03 05:39:38;;;;;;;23.63;17.73;;;;;;;-1.09;100.00;97180.13;5004006;28;20642;-73
2021/01/03 05:42:22;;;;;;;24.10;17.50;;;;;;;-1.19;100.00;97182.56;5002687;28;20938;-73
2021/01/03 05:44:57;;;;;;;20.43;16.63;;;;;;;-1.09;100.00;97180.13;5003184;28;20447;-75
2021/01/03 05:47:29;;;;;;;23.93;16.50;;;;;;;-1.25;100.00;97188.19;5001291;28;20454;-71
2021/01/03 05:50:16;;;;;;;21.53;16.30;;;;;;;-1.24;100.00;97193.31;5005159;28;20735;-74
2021/01/03 05:52:50;;;;;;;24.57;17.70;;;;;;;-1.19;100.00;97200.75;5007731;28;20460;-72
2021/01/03 05:55:25;;;;;;;22.93;16.97;;;;;;;-1.25;100.00;97193.41;5000112;28;20245;-73
2021/01/03 05:58:07;;;;;;;18.43;16.10;;;;;;;-1.26;100.00;97196.94;5002806;28;20739;-73
2021/01/03 06:00:34;;;;;;;22.83;16.97;;;;;;;-1.29;100.00;97198.00;5008813;28;20471;-73
2021/01/03 06:03:20;;;;;;;24.60;17.40;;;;;;;-1.21;100.00;97203.47;5004866;28;20613;-74
2021/01/03 06:05:50;;;;;;;20.83;16.93;;;;;;;-1.29;100.00;97204.97;5006516;28;20514;-72
2021/01/03 06:08:20;;;;;;;21.10;15.87;;;;;;;-1.07;100.00;97205.09;5003667;28;20217;-74
2021/01/03 06:10:47;;;;;;;20.03;16.30;;;;;;;-1.11;100.00;97202.81;5004748;28;20444;-73
2021/01/03 06:13:16;;;;;;;22.97;17.00;;;;;;;-1.03;100.00;97203.09;5001798;28;20300;-71
2021/01/03 06:15:45;;;;;;;23.30;18.03;;;;;;;-0.99;100.00;97212.31;5005684;28;20224;-72
2021/01/03 06:18:15;;;;;;;23.37;17.80;;;;;;;-1.03;100.00;97206.53;5005699;28;20209;-73
2021/01/03 06:20:43;;;;;;;21.30;16.47;;;;;;;-1.06;100.00;97200.72;4997405;28;20201;-73
2021/01/03 06:23:13;;;;;;;21.80;17.53;;;;;;;-1.15;100.00;97201.38;4999469;28;20526;-73
2021/01/03 06:25:43;;;;;;;23.63;17.77;;;;;;;-1.08;100.00;97197.38;5008587;28;20267;-70
2021/01/03 06:28:13;;;;;;;21.77;16.70;;;;;;;-0.88;100.00;97190.75;5000455;28;20436;-72
2021/01/03 06:30:44;;;;;;;21.67;16.00;;;;;;;-0.83;100.00;97199.03;5005037;28;20204;-71
2021/01/03 06:33:50;;;;;;;20.73;17.90;;;;;;;-0.92;100.00;97197.13;5004831;28;20228;-74
2021/01/03 06:36:19;;;;;;;24.90;17.00;;;;;;;-1.12;100.00;97194.19;4993366;28;20237;-74
2021/01/03 06:39:00;;;;;;;20.23;16.63;;;;;;;-1.07;100.00;97196.44;5001694;28;20211;-74
2021/01/03 06:41:44;;;;;;;20.50;17.07;;;;;;;-1.05;100.00;97200.59;5004429;28;20244;-73
2021/01/03 06:44:46;;;;;;;25.27;17.27;;;;;;;-1.14;100.00;97200.44;5002702;28;20264;-73
2021/01/03 06:48:07;;;;;;;26.40;17.67;;;;;;;-0.95;100.00;97192.13;5012074;28;20200;-74
2021/01/03 06:51:04;;;;;;;20.47;16.27;;;;;;;-0.82;100.00;97192.88;4908527;29;20208;-73
2021/01/03 06:54:12;;;;;;;21.70;16.23;;;;;;;-0.94;100.00;97199.00;4990618;28;20710;-75
2021/01/03 06:57:09;;;;;;;18.60;15.43;;;;;;;-0.94;100.00;97199.84;5001886;28;20205;-74
2021/01/03 06:59:59;;;;;;;21.53;15.50;;;;;;;-0.99;100.00;97214.09;5002890;28;20478;-74
2021/01/03 07:02:26;;;;;;;21.97;17.47;;;;;;;-0.94;100.00;97204.19;5002802;28;20233;-74
2021/01/03 07:04:53;;;;;;;23.10;17.83;;;;;;;-0.94;100.00;97206.81;4997592;28;20813;-72
2021/01/03 07:07:25;;;;;;;27.53;21.33;;;;;;;-0.94;100.00;97206.81;5001705;28;20447;-72
2021/01/03 07:09:56;;;;;;;33.90;26.13;;;;;;;-0.86;100.00;97199.25;5001946;28;20204;-74
2021/01/03 07:12:37;;;;;;;34.17;22.97;;;;;;;-0.93;100.00;97205.84;5006808;28;20499;-74
2021/01/03 07:15:08;;;;;;;253.03;90.03;;;;;;;-1.02;100.00;97210.78;5001090;28;20220;-76
2021/01/03 07:18:03;;;;;;;55.10;28.23;;;;;;;-0.97;100.00;97220.84;5000188;28;20236;-73
2021/01/03 07:20:36;;;;;;;24.90;19.03;;;;;;;-1.00;100.00;97207.25;4999527;28;20657;-74
2021/01/03 07:23:16;;;;;;;29.03;19.40;;;;;;;-0.93;100.00;97217.09;5005951;28;20587;-75
2021/01/03 07:25:47;;;;;;;25.50;18.40;;;;;;;-0.93;100.00;97214.50;5001673;28;20661;-73
2021/01/03 07:28:17;;;;;;;32.23;27.40;;;;;;;-0.95;100.00;97218.97;4995159;28;20517;-76
2021/01/03 07:30:53;;;;;;;24.03;18.47;;;;;;;-0.93;100.00;97222.31;4997914;28;20566;-74
2021/01/03 07:33:28;;;;;;;32.83;22.43;;;;;;;-0.85;100.00;97218.31;4997288;28;20534;-76
2021/01/03 07:35:55;;;;;;;25.33;20.37;;;;;;;-1.09;100.00;97219.13;4994008;28;20625;-75
2021/01/03 07:38:31;;;;;;;29.50;20.07;;;;;;;-0.93;100.00;97221.47;4999535;28;20532;-76
2021/01/03 07:41:05;;;;;;;26.90;19.93;;;;;;;-0.92;100.00;97223.13;4993734;28;20267;-76
2021/01/03 07:43:55;;;;;;;25.50;19.80;;;;;;;-0.70;100.00;97225.00;5002219;28;20214;-74
2021/01/03 07:46:44;;;;;;;23.10;18.03;;;;;;;-0.67;100.00;97224.78;5002058;28;20208;-73
2021/01/03 07:49:33;;;;;;;35.77;31.03;;;;;;;-0.94;100.00;97228.47;5002134;28;20232;-76
2021/01/03 07:52:02;;;;;;;37.83;27.40;;;;;;;-0.86;100.00;97217.47;4992990;28;20526;-75
2021/01/03 07:54:30;;;;;;;42.20;29.87;;;;;;;-0.74;100.00;97226.16;4993328;28;20210;-75
2021/01/03 07:56:57;;;;;;;32.10;26.53;;;;;;;-0.78;100.00;97227.34;4997833;28;20212;-76
2021/01/03 07:59:24;;;;;;;30.97;24.30;;;;;;;-0.74;100.00;97228.78;4995112;28;20206;-76
2021/01/03 08:01:53;;;;;;;30.80;23.00;;;;;;;-0.84;100.00;97227.78;4999493;28;20256;-75
2021/01/03 08:04:26;;;;;;;33.33;23.63;;;;;;;-0.90;100.00;97222.09;4999010;28;20578;-79
2021/01/03 08:07:03;;;;;;;27.13;19.30;;;;;;;-0.81;100.00;97223.16;4997709;28;20534;-80
2021/01/03 08:09:31;;;;;;;28.87;21.83;;;;;;;-0.95;100.00;97228.56;4999066;28;20204;-77
2021/01/03 08:12:10;;;;;;;26.67;19.60;;;;;;;-0.82;100.00;97224.13;5005978;28;20232;-78
2021/01/03 08:14:40;;;;;;;33.80;21.90;;;;;;;-0.77;100.00;97234.19;4998179;28;20205;-80
2021/01/03 08:17:08;;;;;;;25.33;19.77;;;;;;;-0.83;100.00;97230.25;5004435;28;20307;-79
2021/01/03 08:19:36;;;;;;;22.60;17.97;;;;;;;-0.96;100.00;97234.69;5008768;28;21130;-79
2021/01/03 08:22:03;;;;;;;22.33;17.30;;;;;;;-0.97;100.00;97246.03;5017288;28;20334;-77
2021/01/03 08:24:31;;;;;;;21.70;18.63;;;;;;;-0.83;100.00;97247.66;5013856;28;20570;-79
2021/01/03 08:27:00;;;;;;;21.40;19.07;;;;;;;-0.89;100.00;97252.38;5009913;28;20204;-78
2021/01/03 08:29:37;;;;;;;20.73;17.47;;;;;;;-0.93;100.00;97248.31;5012025;28;20452;-79
2021/01/03 08:32:09;;;;;;;22.60;17.20;;;;;;;-0.91;100.00;97259.44;5011865;28;20227;-79
2021/01/03 08:34:42;;;;;;;21.63;16.37;;;;;;;-0.85;100.00;97258.16;5007143;28;20219;-80
2021/01/03 08:37:14;;;;;;;21.53;17.27;;;;;;;-0.81;100.00;97246.59;5007801;28;20291;-80
2021/01/03 08:39:42;;;;;;;21.50;16.60;;;;;;;-0.84;100.00;97259.81;5017436;28;20212;-80
2021/01/03 08:42:12;;;;;;;63.40;30.10;;;;;;;-0.93;100.00;97256.13;5023170;28;20375;-80
2021/01/03 08:44:41;;;;;;;62.97;29.80;;;;;;;-0.89;100.00;97252.38;5018975;28;20208;-80
2021/01/03 08:47:10;;;;;;;72.20;34.00;;;;;;;-0.70;100.00;97247.59;5007036;28;20235;-79
2021/01/03 08:49:37;;;;;;;105.60;42.07;;;;;;;-0.55;100.00;97261.28;5013633;28;20212;-78
2021/01/03 08:52:08;;;;;;;61.23;30.30;;;;;;;-0.63;100.00;97264.44;5007131;28;20289;-77
2021/01/03 08:54:35;;;;;;;29.47;20.40;;;;;;;-0.60;100.00;97269.41;5008607;28;20223;-79
2021/01/03 08:57:05;;;;;;;24.93;18.30;;;;;;;-0.59;100.00;97269.28;5007801;28;20439;-76
2021/01/03 08:59:32;;;;;;;26.33;18.50;;;;;;;-0.35;100.00;97267.63;5008528;28;20209;-77
2021/01/03 09:01:59;;;;;;;25.37;17.57;;;;;;;-0.42;100.00;97275.03;5012324;28;20303;-78
2021/01/03 09:04:27;;;;;;;25.27;17.77;;;;;;;-0.04;100.00;97275.72;5006223;28;20253;-78
2021/01/03 09:06:56;;;;;;;25.50;19.30;;;;;;;0.13;100.00;97275.31;5009470;28;20240;-76
2021/01/03 09:09:26;;;;;;;22.03;17.33;;;;;;;-0.28;100.00;97278.38;5009247;28;20209;-77
2021/01/03 09:11:56;;;;;;;21.73;16.40;;;;;;;-0.44;100.00;97279.53;5010310;28;20224;-77
2021/01/03 09:14:27;;;;;;;23.00;17.60;;;;;;;-0.45;100.00;97286.50;5006826;28;20208;-78
2021/01/03 09:16:56;;;;;;;26.63;18.30;;;;;;;-0.39;100.00;97286.97;5007902;28;20235;-78
2021/01/03 09:19:27;;;;;;;23.57;17.57;;;;;;;-0.44;100.00;97288.16;5005846;28;20462;-76
2021/01/03 09:21:56;;;;;;;25.17;17.07;;;;;;;-0.28;100.00;97297.47;5002004;28;20230;-78
2021/01/03 09:24:25;;;;;;;24.37;17.83;;;;;;;-0.34;100.00;97285.72;4998909;28;20239;-79
2021/01/03 09:26:53;;;;;;;21.60;16.03;;;;;;;-0.37;100.00;97291.16;5006243;28;20508;-79
2021/01/03 09:29:26;;;;;;;25.20;19.47;;;;;;;-0.50;100.00;97293.00;5009532;28;20214;-79
2021/01/03 09:32:01;;;;;;;390.40;110.90;;;;;;;-0.27;100.00;97291.31;5009294;28;20701;-78
2021/01/03 09:34:48;;;;;;;33.57;21.87;;;;;;;0.15;100.00;97293.41;5004544;28;20379;-77
2021/01/03 09:37:21;;;;;;;26.23;19.80;;;;;;;-0.17;100.00;97294.88;5013174;28;20211;-79
2021/01/03 09:40:08;;;;;;;40.43;22.53;;;;;;;0.08;100.00;97305.25;5002576;28;20213;-78
2021/01/03 09:42:38;;;;;;;28.13;19.70;;;;;;;0.56;100.00;97302.47;5011738;28;20256;-78
2021/01/03 09:45:18;;;;;;;35.83;22.63;;;;;;;0.70;100.00;97306.63;5007528;28;20221;-76
2021/01/03 09:47:46;;;;;;;51.37;29.17;;;;;;;0.62;100.00;97313.41;5000630;28;20212;-79
2021/01/03 09:50:24;;;;;;;32.80;21.23;;;;;;;0.50;100.00;97313.38;5002289;28;20219;-79
2021/01/03 09:52:58;;;;;;;26.30;20.50;;;;;;;0.35;100.00;97320.56;5004910;28;20229;-77
2021/01/03 09:55:27;;;;;;;23.60;17.27;;;;;;;0.59;100.00;97318.84;5001264;28;20444;-78
2021/01/03 09:58:03;;;;;;;25.40;18.33;;;;;;;0.68;100.00;97316.34;5003569;28;20193;-78
2021/01/03 10:00:50;;;;;;;23.93;18.50;;;;;;;0.62;100.00;97316.00;5006785;28;20208;-78
2021/01/03 10:03:19;;;;;;;23.90;18.70;;;;;;;0.57;100.00;97311.97;5002602;28;20212;-78
2021/01/03 10:05:47;;;;;;;26.90;20.43;;;;;;;0.52;100.00;97308.06;5005287;28;20433;-78
2021/01/03 10:08:20;;;;;;;22.03;18.97;;;;;;;0.43;100.00;97307.81;5006081;28;20208;-77
2021/01/03 10:10:48;;;;;;;24.37;19.13;;;;;;;0.54;100.00;97306.16;5008290;28;20212;-77
2021/01/03 10:13:16;;;;;;;22.57;17.87;;;;;;;0.42;100.00;97316.59;5002522;28;20204;-77
2021/01/03 10:15:49;;;;;;;24.63;18.80;;;;;;;0.42;100.00;97307.91;4996894;28;20232;-76
2021/01/03 10:18:30;;;;;;;19.97;17.07;;;;;;;0.40;100.00;97307.19;4999185;28;20626;-75
2021/01/03 10:20:58;;;;;;;20.27;15.07;;;;;;;0.47;100.00;97308.38;4997152;28;20232;-73
2021/01/03 10:23:37;;;;;;;21.47;15.80;;;;;;;0.79;100.00;97307.69;4997437;28;20215;-74
2021/01/03 10:26:15;;;;;;;25.00;17.80;;;;;;;0.61;100.00;97311.75;5001113;28;20201;-72
2021/01/03 10:28:42;;;;;;;23.03;17.73;;;;;;;0.43;100.00;97312.19;5001648;28;20247;-78
2021/01/03 10:31:09;;;;;;;19.73;15.83;;;;;;;0.45;100.00;97320.72;5001539;28;20284;-76
2021/01/03 10:33:37;;;;;;;18.00;15.20;;;;;;;0.47;100.00;97311.00;5001744;28;20991;-76
2021/01/03 10:36:05;;;;;;;17.70;15.20;;;;;;;0.53;100.00;97312.31;5000254;28;20856;-75
2021/01/03 10:38:32;;;;;;;20.53;15.87;;;;;;;0.44;100.00;97321.66;5003571;28;20709;-76
2021/01/03 10:41:15;;;;;;;18.17;14.97;;;;;;;0.52;100.00;97310.66;5000363;28;20239;-76
2021/01/03 10:43:43;;;;;;;20.63;15.70;;;;;;;0.57;100.00;97309.38;5004603;28;20198;-75
2021/01/03 10:46:10;;;;;;;18.00;16.10;;;;;;;0.50;100.00;97307.34;4997492;28;20206;-76
2021/01/03 10:48:38;;;;;;;21.43;16.57;;;;;;;0.63;100.00;97315.06;5001554;28;20208;-76
2021/01/03 10:51:30;;;;;;;18.37;16.10;;;;;;;0.42;100.00;97320.94;4997875;28;20252;-76
2021/01/03 10:53:57;;;;;;;18.50;16.23;;;;;;;0.50;100.00;97321.19;5000356;28;20205;-76
2021/01/03 10:56:24;;;;;;;23.20;16.83;;;;;;;0.40;100.00;97321.09;4999642;28;20689;-75
2021/01/03 10:58:51;;;;;;;20.33;15.43;;;;;;;0.53;100.00;97318.34;5000666;28;20204;-75
2021/01/03 11:01:19;;;;;;;17.03;14.47;;;;;;;0.47;100.00;97328.44;5003879;28;20311;-74
2021/01/03 11:03:48;;;;;;;19.83;14.90;;;;;;;0.34;100.00;97318.09;4996779;28;20205;-77
2021/01/03 11:06:34;;;;;;;21.43;15.97;;;;;;;0.33;100.00;97319.88;5005852;28;20554;-76
2021/01/03 11:09:01;;;;;;;21.80;15.57;;;;;;;0.35;100.00;97319.75;5000511;28;20208;-76
2021/01/03 11:11:28;;;;;;;20.50;16.07;;;;;;;0.46;100.00;97318.94;5001606;28;20232;-75
2021/01/03 11:13:55;;;;;;;19.07;15.47;;;;;;;0.35;100.00;97314.56;4997745;28;20256;-76
2021/01/03 11:16:30;;;;;;;22.03;15.77;;;;;;;0.18;100.00;97311.41;5001403;28;20417;-76
2021/01/03 11:18:58;;;;;;;19.77;13.93;;;;;;;0.20;100.00;97304.34;5001550;28;20201;-76
2021/01/03 11:21:25;;;;;;;17.07;13.97;;;;;;;0.18;100.00;97310.59;4998595;28;20226;-75
2021/01/03 11:23:52;;;;;;;19.23;15.07;;;;;;;0.38;100.00;97302.13;5006248;28;20665;-75
2021/01/03 11:26:31;;;;;;;17.13;14.07;;;;;;;0.21;100.00;97306.00;5003606;28;20236;-74
2021/01/03 11:28:58;;;;;;;17.60;13.87;;;;;;;0.32;100.00;97317.38;4997509;28;20219;-74